sensor_id;sensor_type;location;lat;lon;timestamp;P1;durP1;ratioP1;P2;durP2;ratioP2
30010;SDS011;16851;53.564;8.112;2023-03-21T00:03:11;132.00;;;51.70;;
30010;SDS011;16851;53.564;8.112;2023-03-21T00:08:12;134.07;;;55.33;;
30010;SDS011;16851;53.564;8.112;2023-03-21T00:13:17;107.10;;;48.40;;
30010;SDS011;16851;53.564;8.112;2023-03-21T00:18:20;109.37;;;47.53;;
30010;SDS011;16851;53.564;8.112;2023-03-21T00:23:26;113.03;;;48.37;;
30010;SDS011;16851;53.564;8.112;2023-03-21T00:28:31;130.30;;;50.90;;
30010;SDS011;16851;53.564;8.112;2023-03-21T00:33:38;125.67;;;52.83;;
30010;SDS011;16851;53.564;8.112;2023-03-21T00:38:43;108.93;;;48.23;;
30010;SDS011;16851;53.564;8.112;2023-03-21T00:43:47;106.67;;;47.03;;
30010;SDS011;16851;53.564;8.112;2023-03-21T00:48:48;99.67;;;42.60;;
30010;SDS011;16851;53.564;8.112;2023-03-21T00:53:56;125.07;;;50.77;;
30010;SDS011;16851;53.564;8.112;2023-03-21T00:59:01;124.60;;;49.53;;
30010;SDS011;16851;53.564;8.112;2023-03-21T01:04:02;112.50;;;49.23;;
30010;SDS011;16851;53.564;8.112;2023-03-21T01:09:10;116.33;;;47.93;;
30010;SDS011;16851;53.564;8.112;2023-03-21T01:14:14;105.30;;;47.13;;
30010;SDS011;16851;53.564;8.112;2023-03-21T01:19:28;108.23;;;46.50;;
30010;SDS011;16851;53.564;8.112;2023-03-21T01:24:51;117.60;;;49.30;;
30010;SDS011;16851;53.564;8.112;2023-03-21T01:30:08;118.93;;;48.20;;
30010;SDS011;16851;53.564;8.112;2023-03-21T01:35:20;122.73;;;50.37;;
30010;SDS011;16851;53.564;8.112;2023-03-21T01:40:24;107.43;;;49.20;;
30010;SDS011;16851;53.564;8.112;2023-03-21T01:51:29;108.70;;;48.30;;
30010;SDS011;16851;53.564;8.112;2023-03-21T01:56:38;109.20;;;46.77;;
30010;SDS011;16851;53.564;8.112;2023-03-21T02:01:46;108.17;;;47.37;;
30010;SDS011;16851;53.564;8.112;2023-03-21T02:12:14;104.83;;;46.63;;
30010;SDS011;16851;53.564;8.112;2023-03-21T02:17:30;104.90;;;47.27;;
30010;SDS011;16851;53.564;8.112;2023-03-21T02:23:01;112.47;;;48.77;;
30010;SDS011;16851;53.564;8.112;2023-03-21T02:38:52;120.90;;;50.13;;
30010;SDS011;16851;53.564;8.112;2023-03-21T02:49:46;133.37;;;54.63;;
30010;SDS011;16851;53.564;8.112;2023-03-21T02:55:15;144.07;;;54.50;;
30010;SDS011;16851;53.564;8.112;2023-03-21T03:00:27;152.27;;;56.63;;
30010;SDS011;16851;53.564;8.112;2023-03-21T03:05:32;160.53;;;56.93;;
30010;SDS011;16851;53.564;8.112;2023-03-21T03:10:45;143.17;;;52.47;;
30010;SDS011;16851;53.564;8.112;2023-03-21T03:16:01;147.13;;;53.63;;
30010;SDS011;16851;53.564;8.112;2023-03-21T03:21:10;128.77;;;51.37;;
30010;SDS011;16851;53.564;8.112;2023-03-21T03:31:34;143.53;;;51.97;;
30010;SDS011;16851;53.564;8.112;2023-03-21T03:36:39;148.00;;;53.00;;
30010;SDS011;16851;53.564;8.112;2023-03-21T03:41:53;126.10;;;50.43;;
30010;SDS011;16851;53.564;8.112;2023-03-21T03:47:33;118.00;;;48.50;;
30010;SDS011;16851;53.564;8.112;2023-03-21T03:53:05;142.37;;;53.87;;
30010;SDS011;16851;53.564;8.112;2023-03-21T03:58:20;150.37;;;56.93;;
30010;SDS011;16851;53.564;8.112;2023-03-21T04:03:47;140.67;;;53.37;;
30010;SDS011;16851;53.564;8.112;2023-03-21T04:08:59;152.03;;;56.20;;
30010;SDS011;16851;53.564;8.112;2023-03-21T04:14:21;129.43;;;53.70;;
30010;SDS011;16851;53.564;8.112;2023-03-21T04:19:28;135.60;;;51.67;;
30010;SDS011;16851;53.564;8.112;2023-03-21T04:24:32;141.67;;;50.20;;
30010;SDS011;16851;53.564;8.112;2023-03-21T04:29:34;166.13;;;55.47;;
30010;SDS011;16851;53.564;8.112;2023-03-21T04:34:47;163.60;;;53.40;;
30010;SDS011;16851;53.564;8.112;2023-03-21T04:39:51;175.87;;;53.47;;
30010;SDS011;16851;53.564;8.112;2023-03-21T04:44:56;189.13;;;56.73;;
30010;SDS011;16851;53.564;8.112;2023-03-21T04:49:58;167.37;;;51.47;;
30010;SDS011;16851;53.564;8.112;2023-03-21T04:55:02;195.97;;;57.13;;
30010;SDS011;16851;53.564;8.112;2023-03-21T05:00:05;173.40;;;53.37;;
30010;SDS011;16851;53.564;8.112;2023-03-21T05:05:14;205.43;;;57.07;;
30010;SDS011;16851;53.564;8.112;2023-03-21T05:10:18;159.60;;;52.40;;
30010;SDS011;16851;53.564;8.112;2023-03-21T05:15:22;180.87;;;53.97;;
30010;SDS011;16851;53.564;8.112;2023-03-21T05:20:24;196.80;;;56.90;;
30010;SDS011;16851;53.564;8.112;2023-03-21T05:25:31;168.87;;;54.67;;
30010;SDS011;16851;53.564;8.112;2023-03-21T05:30:54;167.33;;;56.90;;
30010;SDS011;16851;53.564;8.112;2023-03-21T05:35:56;177.40;;;58.83;;
30010;SDS011;16851;53.564;8.112;2023-03-21T05:41:02;147.07;;;52.97;;
30010;SDS011;16851;53.564;8.112;2023-03-21T05:46:05;151.87;;;56.17;;
30010;SDS011;16851;53.564;8.112;2023-03-21T05:51:07;133.70;;;52.17;;
30010;SDS011;16851;53.564;8.112;2023-03-21T05:56:12;124.80;;;49.43;;
30010;SDS011;16851;53.564;8.112;2023-03-21T06:01:24;126.90;;;50.47;;
30010;SDS011;16851;53.564;8.112;2023-03-21T06:06:37;127.07;;;59.33;;
30010;SDS011;16851;53.564;8.112;2023-03-21T06:11:44;133.93;;;50.63;;
30010;SDS011;16851;53.564;8.112;2023-03-21T06:17:05;120.83;;;46.27;;
30010;SDS011;16851;53.564;8.112;2023-03-21T06:22:12;131.00;;;47.60;;
30010;SDS011;16851;53.564;8.112;2023-03-21T06:27:15;126.17;;;47.80;;
30010;SDS011;16851;53.564;8.112;2023-03-21T06:32:28;122.90;;;47.57;;
30010;SDS011;16851;53.564;8.112;2023-03-21T06:37:35;117.03;;;46.67;;
30010;SDS011;16851;53.564;8.112;2023-03-21T06:42:37;119.47;;;47.07;;
30010;SDS011;16851;53.564;8.112;2023-03-21T06:47:47;116.70;;;44.70;;
30010;SDS011;16851;53.564;8.112;2023-03-21T06:53:01;112.47;;;45.20;;
30010;SDS011;16851;53.564;8.112;2023-03-21T06:58:14;87.30;;;39.90;;
30010;SDS011;16851;53.564;8.112;2023-03-21T07:03:23;90.83;;;39.03;;
30010;SDS011;16851;53.564;8.112;2023-03-21T07:08:26;63.27;;;34.07;;
30010;SDS011;16851;53.564;8.112;2023-03-21T07:13:30;67.10;;;35.07;;
30010;SDS011;16851;53.564;8.112;2023-03-21T07:18:37;67.20;;;41.22;;
30010;SDS011;16851;53.564;8.112;2023-03-21T07:23:41;56.40;;;33.97;;
30010;SDS011;16851;53.564;8.112;2023-03-21T07:28:47;59.50;;;33.27;;
30010;SDS011;16851;53.564;8.112;2023-03-21T07:33:54;44.77;;;28.00;;
30010;SDS011;16851;53.564;8.112;2023-03-21T07:38:56;51.30;;;32.50;;
30010;SDS011;16851;53.564;8.112;2023-03-21T07:44:01;54.87;;;32.83;;
30010;SDS011;16851;53.564;8.112;2023-03-21T07:49:12;55.90;;;33.73;;
30010;SDS011;16851;53.564;8.112;2023-03-21T07:54:14;54.10;;;33.13;;
30010;SDS011;16851;53.564;8.112;2023-03-21T07:59:21;61.97;;;34.40;;
30010;SDS011;16851;53.564;8.112;2023-03-21T08:04:23;62.90;;;36.97;;
30010;SDS011;16851;53.564;8.112;2023-03-21T08:09:26;64.03;;;35.33;;
30010;SDS011;16851;53.564;8.112;2023-03-21T08:14:31;68.47;;;39.57;;
30010;SDS011;16851;53.564;8.112;2023-03-21T08:19:35;74.13;;;37.93;;
30010;SDS011;16851;53.564;8.112;2023-03-21T08:24:40;81.67;;;39.57;;
30010;SDS011;16851;53.564;8.112;2023-03-21T08:29:41;70.23;;;37.40;;
30010;SDS011;16851;53.564;8.112;2023-03-21T08:34:48;67.67;;;36.00;;
30010;SDS011;16851;53.564;8.112;2023-03-21T08:39:50;59.87;;;33.27;;
30010;SDS011;16851;53.564;8.112;2023-03-21T08:44:54;56.50;;;32.93;;
30010;SDS011;16851;53.564;8.112;2023-03-21T08:50:00;48.87;;;29.17;;
30010;SDS011;16851;53.564;8.112;2023-03-21T08:55:06;52.47;;;31.57;;
30010;SDS011;16851;53.564;8.112;2023-03-21T09:00:12;50.87;;;31.40;;
30010;SDS011;16851;53.564;8.112;2023-03-21T09:05:19;34.47;;;23.40;;
30010;SDS011;16851;53.564;8.112;2023-03-21T09:10:23;35.03;;;24.67;;
30010;SDS011;16851;53.564;8.112;2023-03-21T09:15:25;32.00;;;21.97;;
30010;SDS011;16851;53.564;8.112;2023-03-21T09:20:30;30.43;;;21.23;;
30010;SDS011;16851;53.564;8.112;2023-03-21T09:25:33;33.27;;;22.40;;
30010;SDS011;16851;53.564;8.112;2023-03-21T09:30:38;26.93;;;19.77;;
30010;SDS011;16851;53.564;8.112;2023-03-21T09:35:42;28.40;;;19.00;;
30010;SDS011;16851;53.564;8.112;2023-03-21T09:46:15;22.30;;;17.20;;
30010;SDS011;16851;53.564;8.112;2023-03-21T09:51:24;20.33;;;15.80;;
30010;SDS011;16851;53.564;8.112;2023-03-21T09:56:35;22.67;;;15.70;;
30010;SDS011;16851;53.564;8.112;2023-03-21T10:01:45;19.10;;;14.73;;
30010;SDS011;16851;53.564;8.112;2023-03-21T10:06:54;17.77;;;12.70;;
30010;SDS011;16851;53.564;8.112;2023-03-21T10:12:01;16.70;;;12.37;;
30010;SDS011;16851;53.564;8.112;2023-03-21T10:22:28;17.23;;;11.63;;
30010;SDS011;16851;53.564;8.112;2023-03-21T10:27:31;16.30;;;11.87;;
30010;SDS011;16851;53.564;8.112;2023-03-21T10:32:40;19.00;;;11.10;;
30010;SDS011;16851;53.564;8.112;2023-03-21T10:37:41;15.70;;;10.17;;
30010;SDS011;16851;53.564;8.112;2023-03-21T10:42:47;15.27;;;10.33;;
30010;SDS011;16851;53.564;8.112;2023-03-21T10:47:53;11.37;;;7.80;;
30010;SDS011;16851;53.564;8.112;2023-03-21T10:52:58;12.30;;;9.33;;
30010;SDS011;16851;53.564;8.112;2023-03-21T10:58:07;12.20;;;10.23;;
30010;SDS011;16851;53.564;8.112;2023-03-21T11:03:18;12.83;;;10.47;;
30010;SDS011;16851;53.564;8.112;2023-03-21T11:08:23;10.50;;;8.80;;
30010;SDS011;16851;53.564;8.112;2023-03-21T11:13:37;11.73;;;9.07;;
30010;SDS011;16851;53.564;8.112;2023-03-21T11:18:43;11.83;;;9.57;;
30010;SDS011;16851;53.564;8.112;2023-03-21T11:23:49;14.00;;;10.07;;
30010;SDS011;16851;53.564;8.112;2023-03-21T11:28:56;14.10;;;9.77;;
30010;SDS011;16851;53.564;8.112;2023-03-21T11:33:58;14.13;;;10.63;;
30010;SDS011;16851;53.564;8.112;2023-03-21T11:44:33;12.57;;;9.13;;
30010;SDS011;16851;53.564;8.112;2023-03-21T11:49:42;12.23;;;10.20;;
30010;SDS011;16851;53.564;8.112;2023-03-21T11:59:59;11.97;;;9.03;;
30010;SDS011;16851;53.564;8.112;2023-03-21T12:05:17;10.97;;;7.23;;
30010;SDS011;16851;53.564;8.112;2023-03-21T12:10:43;13.73;;;9.20;;
30010;SDS011;16851;53.564;8.112;2023-03-21T12:16:04;15.97;;;9.87;;
30010;SDS011;16851;53.564;8.112;2023-03-21T12:21:19;17.45;;;13.10;;
30010;SDS011;16851;53.564;8.112;2023-03-21T12:26:37;21.13;;;12.93;;
30010;SDS011;16851;53.564;8.112;2023-03-21T12:47:34;22.93;;;13.20;;
30010;SDS011;16851;53.564;8.112;2023-03-21T12:52:51;31.70;;;17.27;;
30010;SDS011;16851;53.564;8.112;2023-03-21T12:58:05;19.53;;;13.17;;
30010;SDS011;16851;53.564;8.112;2023-03-21T13:03:20;27.30;;;17.47;;
30010;SDS011;16851;53.564;8.112;2023-03-21T13:08:47;22.70;;;15.77;;
30010;SDS011;16851;53.564;8.112;2023-03-21T13:24:18;19.30;;;13.53;;
30010;SDS011;16851;53.564;8.112;2023-03-21T13:29:44;19.33;;;12.07;;
30010;SDS011;16851;53.564;8.112;2023-03-21T13:34:55;14.07;;;10.47;;
30010;SDS011;16851;53.564;8.112;2023-03-21T13:39:59;14.63;;;10.53;;
30010;SDS011;16851;53.564;8.112;2023-03-21T13:45:10;18.47;;;11.00;;
30010;SDS011;16851;53.564;8.112;2023-03-21T13:50:27;17.13;;;9.97;;
30010;SDS011;16851;53.564;8.112;2023-03-21T13:55:41;13.73;;;9.57;;
30010;SDS011;16851;53.564;8.112;2023-03-21T14:00:44;14.30;;;10.27;;
30010;SDS011;16851;53.564;8.112;2023-03-21T14:06:11;12.73;;;9.30;;
30010;SDS011;16851;53.564;8.112;2023-03-21T14:11:17;16.97;;;10.00;;
30010;SDS011;16851;53.564;8.112;2023-03-21T14:16:22;16.60;;;10.30;;
30010;SDS011;16851;53.564;8.112;2023-03-21T14:21:28;14.30;;;9.35;;
30010;SDS011;16851;53.564;8.112;2023-03-21T14:26:36;15.05;;;9.68;;
30010;SDS011;16851;53.564;8.112;2023-03-21T14:31:44;16.87;;;11.97;;
30010;SDS011;16851;53.564;8.112;2023-03-21T14:36:46;12.97;;;10.20;;
30010;SDS011;16851;53.564;8.112;2023-03-21T14:42:04;19.53;;;12.57;;
30010;SDS011;16851;53.564;8.112;2023-03-21T14:47:15;18.13;;;12.40;;
30010;SDS011;16851;53.564;8.112;2023-03-21T14:57:29;17.23;;;11.07;;
30010;SDS011;16851;53.564;8.112;2023-03-21T15:02:37;16.13;;;11.53;;
30010;SDS011;16851;53.564;8.112;2023-03-21T15:07:40;20.97;;;12.10;;
30010;SDS011;16851;53.564;8.112;2023-03-21T15:13:00;18.50;;;12.23;;
30010;SDS011;16851;53.564;8.112;2023-03-21T15:18:17;18.67;;;13.27;;
30010;SDS011;16851;53.564;8.112;2023-03-21T15:28:31;22.23;;;11.80;;
30010;SDS011;16851;53.564;8.112;2023-03-21T15:33:37;19.98;;;10.98;;
30010;SDS011;16851;53.564;8.112;2023-03-21T15:38:41;17.53;;;10.90;;
30010;SDS011;16851;53.564;8.112;2023-03-21T15:54:27;16.90;;;11.80;;
30010;SDS011;16851;53.564;8.112;2023-03-21T15:59:32;16.15;;;11.35;;
30010;SDS011;16851;53.564;8.112;2023-03-21T16:05:01;18.83;;;12.67;;
30010;SDS011;16851;53.564;8.112;2023-03-21T16:10:27;21.58;;;12.95;;
30010;SDS011;16851;53.564;8.112;2023-03-21T16:15:34;21.20;;;12.25;;
30010;SDS011;16851;53.564;8.112;2023-03-21T16:20:43;28.67;;;14.60;;
30010;SDS011;16851;53.564;8.112;2023-03-21T16:25:48;16.83;;;12.80;;
30010;SDS011;16851;53.564;8.112;2023-03-21T16:30:56;23.17;;;13.93;;
30010;SDS011;16851;53.564;8.112;2023-03-21T16:36:00;22.15;;;15.25;;
30010;SDS011;16851;53.564;8.112;2023-03-21T16:41:04;28.90;;;16.23;;
30010;SDS011;16851;53.564;8.112;2023-03-21T16:51:21;25.00;;;17.08;;
30010;SDS011;16851;53.564;8.112;2023-03-21T17:01:28;30.00;;;19.23;;
30010;SDS011;16851;53.564;8.112;2023-03-21T17:06:36;29.35;;;20.38;;
30010;SDS011;16851;53.564;8.112;2023-03-21T17:11:51;33.72;;;23.05;;
30010;SDS011;16851;53.564;8.112;2023-03-21T17:16:53;29.57;;;25.40;;
30010;SDS011;16851;53.564;8.112;2023-03-21T17:21:56;40.70;;;31.60;;
30010;SDS011;16851;53.564;8.112;2023-03-21T17:26:59;32.80;;;27.47;;
30010;SDS011;16851;53.564;8.112;2023-03-21T17:32:06;33.15;;;26.35;;
30010;SDS011;16851;53.564;8.112;2023-03-21T17:37:18;30.63;;;24.27;;
30010;SDS011;16851;53.564;8.112;2023-03-21T17:42:22;35.57;;;25.70;;
30010;SDS011;16851;53.564;8.112;2023-03-21T17:47:25;33.45;;;25.30;;
30010;SDS011;16851;53.564;8.112;2023-03-21T17:52:31;34.58;;;23.40;;
30010;SDS011;16851;53.564;8.112;2023-03-21T17:57:37;34.47;;;25.30;;
30010;SDS011;16851;53.564;8.112;2023-03-21T18:02:39;34.50;;;25.97;;
30010;SDS011;16851;53.564;8.112;2023-03-21T18:07:44;33.45;;;25.17;;
30010;SDS011;16851;53.564;8.112;2023-03-21T18:13:06;31.93;;;24.37;;
30010;SDS011;16851;53.564;8.112;2023-03-21T18:18:08;33.80;;;23.60;;
30010;SDS011;16851;53.564;8.112;2023-03-21T18:23:16;32.75;;;20.98;;
30010;SDS011;16851;53.564;8.112;2023-03-21T18:28:21;31.48;;;21.77;;
30010;SDS011;16851;53.564;8.112;2023-03-21T18:33:24;31.03;;;22.67;;
30010;SDS011;16851;53.564;8.112;2023-03-21T18:38:27;37.50;;;22.23;;
30010;SDS011;16851;53.564;8.112;2023-03-21T18:43:30;33.30;;;21.70;;
30010;SDS011;16851;53.564;8.112;2023-03-21T18:48:58;31.93;;;21.60;;
30010;SDS011;16851;53.564;8.112;2023-03-21T18:54:23;29.63;;;20.60;;
30010;SDS011;16851;53.564;8.112;2023-03-21T18:59:30;34.70;;;20.38;;
30010;SDS011;16851;53.564;8.112;2023-03-21T19:04:39;31.55;;;19.52;;
30010;SDS011;16851;53.564;8.112;2023-03-21T19:09:44;31.00;;;20.10;;
30010;SDS011;16851;53.564;8.112;2023-03-21T19:15:06;31.37;;;20.17;;
30010;SDS011;16851;53.564;8.112;2023-03-21T19:20:12;27.10;;;18.80;;
30010;SDS011;16851;53.564;8.112;2023-03-21T19:25:17;30.97;;;21.33;;
30010;SDS011;16851;53.564;8.112;2023-03-21T19:30:19;32.03;;;19.40;;
30010;SDS011;16851;53.564;8.112;2023-03-21T19:35:22;33.40;;;22.30;;
30010;SDS011;16851;53.564;8.112;2023-03-21T19:40:30;31.70;;;20.67;;
30010;SDS011;16851;53.564;8.112;2023-03-21T19:45:34;25.37;;;18.73;;
30010;SDS011;16851;53.564;8.112;2023-03-21T19:50:41;32.37;;;19.13;;
30010;SDS011;16851;53.564;8.112;2023-03-21T19:56:04;32.40;;;22.20;;
30010;SDS011;16851;53.564;8.112;2023-03-21T20:01:29;32.80;;;23.30;;
30010;SDS011;16851;53.564;8.112;2023-03-21T20:07:21;35.47;;;23.00;;
30010;SDS011;16851;53.564;8.112;2023-03-21T20:12:46;37.17;;;25.10;;
30010;SDS011;16851;53.564;8.112;2023-03-21T20:18:22;31.50;;;21.93;;
30010;SDS011;16851;53.564;8.112;2023-03-21T20:24:17;30.77;;;20.50;;
30010;SDS011;16851;53.564;8.112;2023-03-21T20:29:34;31.23;;;20.40;;
30010;SDS011;16851;53.564;8.112;2023-03-21T20:35:12;34.13;;;20.30;;
30010;SDS011;16851;53.564;8.112;2023-03-21T20:41:10;28.67;;;19.70;;
30010;SDS011;16851;53.564;8.112;2023-03-21T20:46:38;25.90;;;19.90;;
30010;SDS011;16851;53.564;8.112;2023-03-21T20:51:41;28.23;;;20.73;;
30010;SDS011;16851;53.564;8.112;2023-03-21T20:57:07;32.63;;;20.60;;
30010;SDS011;16851;53.564;8.112;2023-03-21T21:02:11;30.43;;;21.93;;
30010;SDS011;16851;53.564;8.112;2023-03-21T21:07:50;29.57;;;22.13;;
30010;SDS011;16851;53.564;8.112;2023-03-21T21:12:56;30.53;;;23.10;;
30010;SDS011;16851;53.564;8.112;2023-03-21T21:17:58;32.27;;;21.73;;
30010;SDS011;16851;53.564;8.112;2023-03-21T21:23:08;34.80;;;22.23;;
30010;SDS011;16851;53.564;8.112;2023-03-21T21:28:11;32.80;;;22.17;;
30010;SDS011;16851;53.564;8.112;2023-03-21T21:33:16;31.00;;;22.23;;
30010;SDS011;16851;53.564;8.112;2023-03-21T21:38:21;32.23;;;21.70;;
30010;SDS011;16851;53.564;8.112;2023-03-21T21:43:29;33.03;;;22.77;;
30010;SDS011;16851;53.564;8.112;2023-03-21T21:48:38;32.73;;;23.87;;
30010;SDS011;16851;53.564;8.112;2023-03-21T21:53:44;33.00;;;20.93;;
30010;SDS011;16851;53.564;8.112;2023-03-21T21:58:54;31.23;;;22.37;;
30010;SDS011;16851;53.564;8.112;2023-03-21T22:04:05;31.50;;;21.47;;
30010;SDS011;16851;53.564;8.112;2023-03-21T22:09:08;25.83;;;19.00;;
30010;SDS011;16851;53.564;8.112;2023-03-21T22:14:16;25.60;;;20.30;;
30010;SDS011;16851;53.564;8.112;2023-03-21T22:19:22;26.23;;;20.37;;
30010;SDS011;16851;53.564;8.112;2023-03-21T22:24:30;26.83;;;21.43;;
30010;SDS011;16851;53.564;8.112;2023-03-21T22:29:36;27.47;;;22.57;;
30010;SDS011;16851;53.564;8.112;2023-03-21T22:34:41;33.80;;;23.10;;
30010;SDS011;16851;53.564;8.112;2023-03-21T22:39:45;29.70;;;22.27;;
30010;SDS011;16851;53.564;8.112;2023-03-21T22:44:49;29.73;;;23.53;;
30010;SDS011;16851;53.564;8.112;2023-03-21T22:49:53;32.37;;;23.77;;
30010;SDS011;16851;53.564;8.112;2023-03-21T22:54:55;32.03;;;23.93;;
30010;SDS011;16851;53.564;8.112;2023-03-21T22:59:57;29.83;;;23.83;;
30010;SDS011;16851;53.564;8.112;2023-03-21T23:05:01;33.03;;;23.50;;
30010;SDS011;16851;53.564;8.112;2023-03-21T23:10:06;32.97;;;24.17;;
30010;SDS011;16851;53.564;8.112;2023-03-21T23:15:11;33.73;;;25.30;;
30010;SDS011;16851;53.564;8.112;2023-03-21T23:20:18;36.23;;;26.03;;
30010;SDS011;16851;53.564;8.112;2023-03-21T23:25:24;33.57;;;26.37;;
30010;SDS011;16851;53.564;8.112;2023-03-21T23:30:26;37.60;;;24.73;;
30010;SDS011;16851;53.564;8.112;2023-03-21T23:35:27;33.70;;;24.13;;
30010;SDS011;16851;53.564;8.112;2023-03-21T23:40:37;30.73;;;23.37;;
30010;SDS011;16851;53.564;8.112;2023-03-21T23:45:42;33.30;;;21.87;;
30010;SDS011;16851;53.564;8.112;2023-03-21T23:50:46;31.77;;;22.67;;
30010;SDS011;16851;53.564;8.112;2023-03-21T23:55:53;26.87;;;20.83;;
